createdAt,value
2022-10-01T00:01:41.623Z,85.19
2022-10-01T00:05:03.271Z,84.74
2022-10-01T00:08:25.073Z,85.28
2022-10-01T00:11:48.498Z,86.32
2022-10-01T00:15:13.562Z,86.50
2022-10-01T00:18:37.236Z,85.61
2022-10-01T00:21:59.458Z,84.59
2022-10-01T00:25:22.605Z,85.38
2022-10-01T00:28:47.928Z,85.83
2022-10-01T00:32:10.101Z,85.83
2022-10-01T00:35:32.262Z,85.93
2022-10-01T00:38:54.458Z,85.56
2022-10-01T00:42:21.195Z,85.83
2022-10-01T00:45:44.473Z,85.73
2022-10-01T00:49:10.289Z,86.73
2022-10-01T00:52:34.403Z,86.97
2022-10-01T00:56:00.195Z,87.14
2022-10-01T00:59:22.538Z,87.78
2022-10-01T01:02:46.268Z,87.92
2022-10-01T01:06:09.896Z,87.96
2022-10-01T01:09:37.151Z,87.47
2022-10-01T01:13:12.864Z,87.04
2022-10-01T01:16:39.274Z,86.32
2022-10-01T01:20:21.343Z,87.11
2022-10-01T01:24:07.808Z,86.94
2022-10-01T01:27:41.692Z,87.33
2022-10-01T01:31:09.294Z,87.64
2022-10-01T01:34:34.617Z,87.53
2022-10-01T01:38:02.293Z,87.71
2022-10-01T01:41:27.451Z,86.72
2022-10-01T01:44:53.384Z,86.77
2022-10-01T01:48:16.997Z,86.68
2022-10-01T01:51:46.141Z,86.45
2022-10-01T01:55:08.901Z,87.05
2022-10-01T01:58:33.864Z,85.94
2022-10-01T02:01:58.307Z,86.54
2022-10-01T02:05:27.344Z,86.55
2022-10-01T02:08:50.962Z,87.14
2022-10-01T02:12:24.513Z,86.82
2022-10-01T02:15:55.413Z,86.34
2022-10-01T02:19:25.912Z,86.28
2022-10-01T02:22:55.584Z,86.11
2022-10-01T02:26:21.054Z,86.40
2022-10-01T02:29:46.526Z,86.59
2022-10-01T02:33:11.109Z,87.09
2022-10-01T02:36:34.944Z,87.73
2022-10-01T02:40:00.913Z,88.26
2022-10-01T02:43:29.779Z,87.78
2022-10-01T02:46:58.255Z,87.63
2022-10-01T02:50:22.220Z,87.55
2022-10-01T02:53:48.548Z,87.36
2022-10-01T02:57:24.269Z,87.51
2022-10-01T03:00:46.298Z,87.86
2022-10-01T03:04:08.335Z,87.98
2022-10-01T03:07:32.436Z,88.03
2022-10-01T03:10:54.556Z,88.62
2022-10-01T03:14:18.070Z,88.68
2022-10-01T03:17:39.962Z,89.48
2022-10-01T03:21:01.988Z,89.92
2022-10-01T03:24:24.091Z,90.15
2022-10-01T03:27:47.123Z,89.92
2022-10-01T03:31:12.110Z,90.13
2022-10-01T03:34:33.988Z,90.43
2022-10-01T03:37:56.873Z,90.66
2022-10-01T03:41:19.019Z,90.56
2022-10-01T03:44:41.099Z,90.42
2022-10-01T03:48:04.432Z,90.57
2022-10-01T03:51:26.839Z,90.99
2022-10-01T03:54:48.853Z,91.14
2022-10-01T03:58:10.813Z,91.04
2022-10-01T04:01:32.989Z,90.57
2022-10-01T04:04:56.870Z,90.92
2022-10-01T04:08:24.088Z,90.77
2022-10-01T04:11:46.655Z,90.55
2022-10-01T04:15:09.693Z,90.42
2022-10-01T04:18:31.640Z,90.79
2022-10-01T04:21:54.540Z,90.92
2022-10-01T04:25:16.868Z,90.44
2022-10-01T04:28:39.056Z,90.71
2022-10-01T04:32:03.721Z,90.91
2022-10-01T04:35:26.056Z,91.06
2022-10-01T04:38:51.438Z,91.12
2022-10-01T04:42:13.842Z,91.34
2022-10-01T04:45:35.893Z,91.24
2022-10-01T04:48:57.756Z,91.44
2022-10-01T04:52:22.310Z,91.66
2022-10-01T04:55:46.594Z,91.81
2022-10-01T04:59:08.726Z,92.53
2022-10-01T05:02:30.705Z,92.60
2022-10-01T05:05:52.745Z,92.65
2022-10-01T05:09:14.596Z,92.75
2022-10-01T05:12:37.944Z,93.12
2022-10-01T05:15:59.955Z,93.69
2022-10-01T05:19:25.239Z,94.17
2022-10-01T05:22:50.100Z,94.52
2022-10-01T05:26:11.829Z,94.63
2022-10-01T05:29:35.518Z,94.75
2022-10-01T05:32:59.653Z,94.71
2022-10-01T05:36:21.403Z,95.16
2022-10-01T05:39:43.447Z,95.48
2022-10-01T05:43:05.689Z,95.76
2022-10-01T05:46:29.069Z,95.49
2022-10-01T05:49:51.303Z,95.60
2022-10-01T05:53:14.148Z,95.49
2022-10-01T05:56:37.016Z,95.33
2022-10-01T05:59:59.078Z,95.05
2022-10-01T06:03:22.915Z,94.78
2022-10-01T06:06:45.093Z,94.75
2022-10-01T06:10:07.846Z,94.92
2022-10-01T06:13:29.999Z,94.99
2022-10-01T06:16:57.417Z,94.18
2022-10-01T06:20:20.789Z,93.32
2022-10-01T06:23:44.527Z,92.76
2022-10-01T06:27:06.440Z,92.68
2022-10-01T06:30:29.410Z,92.34
2022-10-01T06:33:51.635Z,92.49
2022-10-01T06:37:14.911Z,92.88
2022-10-01T06:40:37.231Z,93.04
2022-10-01T06:43:59.134Z,92.93
2022-10-01T06:47:21.001Z,93.30
2022-10-01T06:50:44.407Z,92.60
2022-10-01T06:54:08.037Z,93.27
2022-10-01T06:57:30.444Z,93.00
2022-10-01T07:00:52.450Z,93.22
2022-10-01T07:04:14.596Z,93.17
2022-10-01T07:07:38.506Z,93.16
2022-10-01T07:11:03.851Z,92.70
2022-10-01T07:14:25.832Z,92.77
2022-10-01T07:17:50.197Z,92.14
2022-10-01T07:21:12.212Z,92.25
2022-10-01T07:24:34.134Z,92.45
2022-10-01T07:27:59.128Z,91.86
2022-10-01T07:31:21.434Z,91.77
2022-10-01T07:34:43.302Z,90.88
2022-10-01T07:38:07.646Z,90.96
2022-10-01T07:41:29.934Z,91.32
2022-10-01T07:44:53.649Z,90.95
2022-10-01T07:48:16.267Z,91.12
2022-10-01T07:51:38.115Z,90.42
2022-10-01T07:54:59.981Z,90.60
2022-10-01T07:58:24.409Z,90.79
2022-10-01T08:01:51.860Z,90.46
2022-10-01T08:05:20.481Z,90.36
2022-10-01T08:08:43.349Z,90.74
2022-10-01T08:12:05.725Z,90.86
2022-10-01T08:15:27.804Z,90.12
2022-10-01T08:18:55.802Z,90.53
2022-10-01T08:22:17.696Z,91.18
2022-10-01T08:25:40.902Z,91.03
2022-10-01T08:29:02.816Z,89.13
2022-10-01T08:32:25.601Z,88.93
2022-10-01T08:35:49.171Z,87.89
2022-10-01T08:39:12.510Z,88.17
2022-10-01T08:42:45.258Z,86.93
2022-10-01T08:46:13.932Z,86.21
2022-10-01T08:49:41.563Z,85.63
2022-10-01T08:53:11.143Z,84.97
2022-10-01T08:56:37.859Z,85.12
2022-10-01T09:00:01.490Z,84.66
2022-10-01T09:03:23.964Z,85.00
2022-10-01T09:06:54.767Z,83.80
2022-10-01T09:10:35.998Z,83.02
2022-10-01T09:14:22.588Z,82.08
2022-10-01T09:17:59.690Z,81.57
2022-10-01T09:21:27.467Z,80.33
2022-10-01T09:24:57.473Z,80.54
2022-10-01T09:28:24.010Z,79.67
2022-10-01T09:31:51.947Z,78.17
2022-10-01T09:35:26.641Z,78.11
2022-10-01T09:38:57.545Z,78.00
2022-10-01T09:42:19.949Z,76.69
2022-10-01T09:45:43.907Z,76.58
2022-10-01T09:49:13.036Z,75.93
2022-10-01T09:52:38.509Z,75.31
2022-10-01T09:56:04.520Z,74.64
2022-10-01T09:59:32.640Z,72.23
2022-10-01T10:02:56.899Z,71.94
2022-10-01T10:06:24.128Z,72.16
2022-10-01T10:09:46.941Z,73.56
2022-10-01T10:13:21.758Z,71.59
2022-10-01T10:16:47.438Z,72.93
2022-10-01T10:20:25.866Z,71.82
2022-10-01T10:23:50.067Z,72.48
2022-10-01T10:27:25.128Z,71.34
2022-10-01T10:30:49.080Z,72.20
2022-10-01T10:34:17.525Z,72.42
2022-10-01T10:37:49.845Z,71.45
2022-10-01T10:41:19.695Z,72.18
2022-10-01T10:44:46.795Z,72.55
2022-10-01T10:48:17.076Z,71.78
2022-10-01T10:51:48.818Z,71.21
2022-10-01T10:55:24.113Z,70.65
2022-10-01T10:58:46.791Z,71.26
2022-10-01T11:02:18.598Z,71.27
2022-10-01T11:05:43.568Z,71.13
2022-10-01T11:09:12.408Z,70.49
2022-10-01T11:12:56.814Z,69.34
2022-10-01T11:16:35.403Z,69.78
2022-10-01T11:20:30.336Z,69.92
2022-10-01T11:24:07.129Z,68.97
2022-10-01T11:27:40.811Z,70.42
2022-10-01T11:31:13.093Z,70.14
2022-10-01T11:35:07.004Z,70.28
2022-10-01T11:38:55.518Z,69.51
2022-10-01T11:42:22.343Z,70.70
2022-10-01T11:45:50.097Z,69.77
2022-10-01T11:49:30.375Z,69.19
2022-10-01T11:52:57.766Z,69.77
2022-10-01T11:56:42.868Z,70.45
2022-10-01T12:00:10.456Z,70.20
2022-10-01T12:03:39.499Z,69.75
2022-10-01T12:07:12.612Z,70.15
2022-10-01T12:10:39.860Z,70.33
2022-10-01T12:14:06.604Z,71.23
2022-10-01T12:17:40.379Z,71.47
2022-10-01T12:21:04.535Z,71.64
2022-10-01T12:24:31.491Z,71.73
2022-10-01T12:28:03.253Z,72.24
2022-10-01T12:31:33.846Z,72.97
2022-10-01T12:35:11.668Z,73.35
2022-10-01T12:38:49.163Z,73.27
2022-10-01T12:42:31.432Z,73.23
2022-10-01T12:46:03.659Z,73.48
2022-10-01T12:49:34.571Z,74.00
2022-10-01T12:53:12.901Z,74.52
2022-10-01T12:56:41.070Z,74.92
2022-10-01T13:00:20.778Z,74.66
2022-10-01T13:04:22.076Z,74.96
2022-10-01T13:07:57.841Z,75.51
2022-10-01T13:11:38.987Z,74.77
2022-10-01T13:15:01.275Z,74.80
2022-10-01T13:18:36.788Z,74.41
2022-10-01T13:22:09.020Z,74.83
2022-10-01T13:25:40.597Z,75.13
2022-10-01T13:29:14.028Z,75.27
2022-10-01T13:32:51.728Z,75.04
2022-10-01T13:36:17.562Z,75.26
2022-10-01T13:39:42.248Z,75.75
2022-10-01T13:43:10.171Z,76.04
2022-10-01T13:46:35.441Z,76.86
2022-10-01T13:50:04.165Z,76.50
2022-10-01T13:53:29.899Z,76.97
2022-10-01T13:56:51.973Z,76.99
2022-10-01T14:00:25.331Z,77.18
2022-10-01T14:03:52.650Z,76.84
2022-10-01T14:07:18.516Z,76.45
2022-10-01T14:11:05.317Z,76.02
2022-10-01T14:14:50.537Z,76.60
2022-10-01T14:18:17.799Z,76.17
2022-10-01T14:21:54.298Z,76.43
2022-10-01T14:25:28.640Z,76.74
2022-10-01T14:29:04.521Z,77.01
2022-10-01T14:32:35.575Z,76.87
2022-10-01T14:36:04.507Z,77.07
2022-10-01T14:39:27.363Z,76.67
2022-10-01T14:42:59.306Z,77.27
2022-10-01T14:46:22.980Z,76.88
2022-10-01T14:49:45.143Z,76.92
2022-10-01T14:53:07.976Z,77.12
2022-10-01T14:56:30.567Z,77.22
2022-10-01T14:59:52.610Z,77.58
2022-10-01T15:03:16.398Z,77.62
2022-10-01T15:06:44.138Z,77.76
2022-10-01T15:10:10.337Z,77.99
2022-10-01T15:13:36.745Z,78.39
2022-10-01T15:16:59.497Z,78.55
2022-10-01T15:20:23.844Z,79.08
2022-10-01T15:23:45.958Z,79.14
2022-10-01T15:27:09.982Z,79.90
2022-10-01T15:30:33.983Z,79.89
2022-10-01T15:33:56.362Z,80.04
2022-10-01T15:37:22.313Z,80.28
2022-10-01T15:40:45.442Z,80.48
2022-10-01T15:44:07.369Z,80.56
2022-10-01T15:47:34.393Z,81.04
2022-10-01T15:51:01.584Z,80.95
2022-10-01T15:54:25.045Z,81.09
2022-10-01T15:57:47.381Z,81.46
2022-10-01T16:01:12.460Z,81.63
2022-10-01T16:04:34.376Z,81.90
2022-10-01T16:07:58.873Z,82.23
2022-10-01T16:11:27.832Z,82.36
2022-10-01T16:14:57.860Z,83.37
2022-10-01T16:18:23.835Z,83.42
2022-10-01T16:21:53.450Z,83.48
2022-10-01T16:26:16.587Z,83.54
2022-10-01T16:29:41.272Z,83.64
2022-10-01T16:33:06.244Z,83.42
2022-10-01T16:36:28.565Z,83.72
2022-10-01T16:39:50.646Z,84.04
2022-10-01T16:43:17.861Z,84.55
2022-10-01T16:46:42.177Z,84.71
2022-10-01T16:50:04.324Z,84.63
2022-10-01T16:53:27.498Z,84.91
2022-10-01T16:56:50.700Z,85.09
2022-10-01T17:05:18.820Z,85.62
2022-10-01T17:08:41.014Z,85.60
2022-10-01T17:12:03.226Z,86.13
2022-10-01T17:15:27.607Z,85.71
2022-10-01T17:18:49.520Z,86.38
2022-10-01T17:22:12.984Z,86.29
2022-10-01T17:25:38.542Z,86.07
2022-10-01T17:29:00.719Z,86.55
2022-10-01T17:32:22.823Z,87.11
2022-10-01T17:35:48.762Z,87.66
2022-10-01T17:39:12.411Z,87.29
2022-10-01T17:42:35.695Z,88.43
2022-10-01T17:45:58.780Z,88.99
2022-10-01T17:49:20.673Z,89.02
2022-10-01T17:52:42.617Z,89.50
2022-10-01T17:56:08.326Z,88.20
2022-10-01T17:59:30.349Z,88.41
2022-10-01T18:02:54.788Z,88.37
2022-10-01T18:06:16.727Z,88.48
2022-10-01T18:09:38.837Z,88.99
2022-10-01T18:13:02.407Z,88.13
2022-10-01T18:16:24.980Z,88.09
2022-10-01T18:19:53.463Z,87.99
2022-10-01T18:23:15.800Z,88.41
2022-10-01T18:26:38.278Z,89.98
2022-10-01T18:30:02.100Z,90.36
2022-10-01T18:33:24.331Z,89.98
2022-10-01T18:36:54.945Z,89.60
2022-10-01T18:40:20.093Z,89.94
2022-10-01T18:43:43.699Z,89.28
2022-10-01T18:47:19.373Z,89.39
2022-10-01T18:50:47.778Z,89.32
2022-10-01T18:54:38.685Z,90.07
2022-10-01T18:58:15.465Z,89.76
2022-10-01T20:35:25.348Z,90.73
2022-10-01T22:10:14.718Z,91.19
2022-10-01T22:13:42.684Z,91.73
2022-10-01T22:17:09.890Z,91.52
2022-10-01T22:20:35.602Z,91.60
2022-10-01T22:24:04.505Z,92.19
2022-10-01T22:27:33.325Z,92.33
2022-10-01T22:30:57.955Z,92.10
2022-10-01T22:34:23.747Z,92.01
2022-10-01T22:37:51.637Z,92.22
2022-10-01T22:41:21.237Z,92.09
2022-10-01T22:44:44.919Z,92.31
2022-10-01T22:48:20.220Z,91.94
2022-10-01T22:51:53.913Z,92.05
2022-10-01T22:55:25.851Z,92.41
2022-10-01T22:59:04.847Z,93.06
2022-10-01T23:02:34.204Z,93.15
2022-10-01T23:06:06.319Z,92.68
2022-10-01T23:09:36.459Z,92.96
2022-10-01T23:13:13.905Z,92.95
2022-10-01T23:16:45.280Z,92.95
2022-10-01T23:20:23.538Z,92.87
2022-10-01T23:23:55.005Z,93.05
2022-10-01T23:27:25.647Z,92.80
2022-10-01T23:30:59.642Z,93.41
2022-10-01T23:34:31.256Z,93.73
2022-10-01T23:38:13.088Z,94.37
2022-10-01T23:41:41.047Z,93.93
2022-10-01T23:45:20.173Z,93.95
2022-10-01T23:48:47.634Z,94.09
2022-10-01T23:52:16.732Z,93.89
2022-10-01T23:56:08.527Z,93.69
2022-10-01T23:59:34.860Z,93.47
